Terminal Aerodrome Forecast
Issued by NWS

Home | Current Version | Previous Version | Text Only | Print | Product List | Glossary Off
Versions: 1 2 3 4 5 6 7 8 9 10 11 12 13 14 15 16 17

000
FTUS43 KMPX 171131
TAFAXN
TAF
KAXN 171131Z 1712/1812 35012KT 6SM -RA BR BKN012
     FM171400 33018G24KT 6SM BR VCSH OVC007
     FM171800 33018G26KT P6SM OVC015
     FM172100 32014G21KT P6SM SCT025
     FM180200 32009KT P6SM SKC
     FM181000 26005KT P6SM SCT120=

USA.gov is the U.S. government's official web portal to all federal, state and local government web resources and services.